PWSweather.com
Personal Weather Stations
Station Observations
KIDJEROME
Sse Jerome Butte , Jerome, ID 83338

Sse Jerome Butte Jerome, ID 83338

Lat: 42.6981891, Lon: -114.4041362

Elevation: 3960

Station Type: Davis Vantage Pro 2

Latest ConditionsUpdated 2:00:00 PM MDT Friday, May 24, 2019
Currently Today's Max Today's Min Today's Average
Temperature 62.3°F16.8°C 62.3°F16.8°C 42.1°F5.6°C 48.9°F9.4°C
Dew Point 47.8°F8.8°C 49.9°F9.9°C 41.3°F5.2°C 45.0°F7.2°C
Winds 10.0 mph W16.1 kmh W 11.0 mph -17.7 kmh - - 4.5 mph 7.2 kmh
Wind Gusts 16.0 mph25.7 kmh 19.0 mph30.6 kmh - -
Humidity 59% 97% 58% 87%
Pressure 29.75 in1007.5 mb 29.82 in1009.8 mb 29.75 in1007.5 mb -
Precipitation - 0.01 in0.3 mm - -
Hour Temp Dew Point Humidity Winds Wind Gusts Pressure Precip Precip Rate Daily Precip Total
02:00 PM 62.3°F16.8°C 47.8°F8.8°C 59% 10.0 mph W16.1 kmh W 16.0 mph25.7 kmh 29.75 in1007.5 mb 0.00 in0.0 mm 0.00 in0.0 mm 0.01 in0.3 mm
01:45 PM 62.0°F16.7°C 48.0°F8.9°C 60% 10.0 mph WSW16.1 kmh WSW 16.0 mph25.7 kmh 29.76 in1007.8 mb 0.00 in0.0 mm 0.00 in0.0 mm 0.01 in0.3 mm
01:30 PM 61.7°F16.5°C 46.8°F8.2°C 58% 10.0 mph WSW16.1 kmh WSW 16.0 mph25.7 kmh 29.76 in1007.8 mb 0.00 in0.0 mm 0.00 in0.0 mm 0.01 in0.3 mm
01:15 PM 61.0°F16.1°C 46.1°F7.8°C 58% 11.0 mph WSW17.7 kmh WSW 19.0 mph30.6 kmh 29.77 in1008.1 mb 0.00 in0.0 mm 0.00 in0.0 mm 0.01 in0.3 mm
01:00 PM 60.7°F15.9°C 48.4°F9.1°C 64% 9.0 mph WSW14.5 kmh WSW 14.0 mph22.5 kmh 29.77 in1008.1 mb 0.00 in0.0 mm 0.00 in0.0 mm 0.01 in0.3 mm
12:45 PM 59.3°F15.2°C 49.5°F9.7°C 70% 9.0 mph W14.5 kmh W 16.0 mph25.7 kmh 29.78 in1008.5 mb 0.00 in0.0 mm 0.00 in0.0 mm 0.01 in0.3 mm
12:30 PM 59.3°F15.2°C 49.1°F9.5°C 69% 9.0 mph W14.5 kmh W 15.0 mph24.1 kmh 29.79 in1008.8 mb 0.00 in0.0 mm 0.00 in0.0 mm 0.01 in0.3 mm
12:15 PM 57.9°F14.4°C 48.6°F9.2°C 71% 9.0 mph W14.5 kmh W 15.0 mph24.1 kmh 29.79 in1008.8 mb 0.00 in0.0 mm 0.00 in0.0 mm 0.01 in0.3 mm
12:00 PM 57.3°F14.1°C 49.1°F9.5°C 74% 9.0 mph WSW14.5 kmh WSW 16.0 mph25.7 kmh 29.80 in1009.1 mb 0.00 in0.0 mm 0.00 in0.0 mm 0.01 in0.3 mm
11:45 AM 57.0°F13.9°C 49.9°F9.9°C 77% 9.0 mph WSW14.5 kmh WSW 13.0 mph20.9 kmh 29.80 in1009.1 mb 0.00 in0.0 mm 0.00 in0.0 mm 0.01 in0.3 mm
11:30 AM 56.2°F13.4°C 49.1°F9.5°C 77% 9.0 mph W14.5 kmh W 15.0 mph24.1 kmh 29.80 in1009.1 mb 0.00 in0.0 mm 0.00 in0.0 mm 0.01 in0.3 mm
11:15 AM 55.8°F13.2°C 49.0°F9.4°C 78% 9.0 mph W14.5 kmh W 14.0 mph22.5 kmh 29.81 in1009.5 mb 0.00 in0.0 mm 0.00 in0.0 mm 0.01 in0.3 mm
11:00 AM 55.1°F12.8°C 48.7°F9.3°C 79% 10.0 mph W16.1 kmh W 16.0 mph25.7 kmh 29.81 in1009.5 mb 0.00 in0.0 mm 0.00 in0.0 mm 0.01 in0.3 mm
10:45 AM 54.7°F12.6°C 48.3°F9.1°C 79% 10.0 mph W16.1 kmh W 15.0 mph24.1 kmh 29.81 in1009.5 mb 0.00 in0.0 mm 0.00 in0.0 mm 0.01 in0.3 mm
10:30 AM 54.3°F12.4°C 48.3°F9.1°C 80% 10.0 mph W16.1 kmh W 15.0 mph24.1 kmh 29.81 in1009.5 mb 0.00 in0.0 mm 0.00 in0.0 mm 0.01 in0.3 mm
10:15 AM 53.4°F11.9°C 48.7°F9.3°C 84% 10.0 mph WSW16.1 kmh WSW 16.0 mph25.7 kmh 29.81 in1009.5 mb 0.00 in0.0 mm 0.00 in0.0 mm 0.01 in0.3 mm
10:00 AM 52.7°F11.5°C 47.7°F8.7°C 83% 10.0 mph WSW16.1 kmh WSW 14.0 mph22.5 kmh 29.81 in1009.5 mb 0.00 in0.0 mm 0.00 in0.0 mm 0.01 in0.3 mm
09:45 AM 52.4°F11.3°C 48.0°F8.9°C 85% 9.0 mph WSW14.5 kmh WSW 14.0 mph22.5 kmh 29.82 in1009.8 mb 0.00 in0.0 mm 0.00 in0.0 mm 0.01 in0.3 mm
09:30 AM 51.9°F11.1°C 47.5°F8.6°C 85% 10.0 mph WSW16.1 kmh WSW 14.0 mph22.5 kmh 29.81 in1009.5 mb 0.00 in0.0 mm 0.00 in0.0 mm 0.01 in0.3 mm
09:15 AM 51.5°F10.8°C 46.8°F8.2°C 84% 10.0 mph WSW16.1 kmh WSW 16.0 mph25.7 kmh 29.81 in1009.5 mb 0.00 in0.0 mm 0.00 in0.0 mm 0.01 in0.3 mm
09:00 AM 51.3°F10.7°C 46.6°F8.1°C 84% 11.0 mph W17.7 kmh W 16.0 mph25.7 kmh 29.80 in1009.1 mb 0.00 in0.0 mm 0.00 in0.0 mm 0.01 in0.3 mm
08:45 AM 51.4°F10.8°C 47.7°F8.7°C 87% 10.0 mph WSW16.1 kmh WSW 14.0 mph22.5 kmh 29.80 in1009.1 mb 0.00 in0.0 mm 0.00 in0.0 mm 0.01 in0.3 mm
08:30 AM 50.1°F10.1°C 46.7°F8.2°C 88% 9.0 mph WSW14.5 kmh WSW 15.0 mph24.1 kmh 29.80 in1009.1 mb 0.00 in0.0 mm 0.00 in0.0 mm 0.01 in0.3 mm
08:15 AM 48.7°F9.3°C 46.2°F7.9°C 91% 6.0 mph WSW9.7 kmh WSW 10.0 mph16.1 kmh 29.79 in1008.8 mb 0.00 in0.0 mm 0.00 in0.0 mm 0.01 in0.3 mm
08:00 AM 47.2°F8.4°C 45.3°F7.4°C 93% 4.0 mph SW6.4 kmh SW 6.0 mph9.7 kmh 29.80 in1009.1 mb 0.00 in0.0 mm 0.00 in0.0 mm 0.01 in0.3 mm
07:45 AM 46.7°F8.2°C 45.1°F7.3°C 94% 4.0 mph SW6.4 kmh SW 6.0 mph9.7 kmh 29.79 in1008.8 mb 0.00 in0.0 mm 0.00 in0.0 mm 0.01 in0.3 mm
07:30 AM 45.8°F7.7°C 44.4°F6.9°C 95% 2.0 mph WSW3.2 kmh WSW 4.0 mph6.4 kmh 29.79 in1008.8 mb 0.00 in0.0 mm 0.00 in0.0 mm 0.01 in0.3 mm
07:15 AM 44.7°F7.1°C 43.9°F6.6°C 97% Calm Calm 3.0 mph4.8 kmh 29.79 in1008.8 mb 0.00 in0.0 mm 0.00 in0.0 mm 0.01 in0.3 mm
07:00 AM 42.9°F6.1°C 42.1°F5.6°C 97% 1.0 mph W1.6 kmh W 2.0 mph3.2 kmh 29.79 in1008.8 mb 0.00 in0.0 mm 0.00 in0.0 mm 0.01 in0.3 mm
06:45 AM 42.1°F5.6°C 41.3°F5.2°C 97% 1.0 mph W1.6 kmh W 2.0 mph3.2 kmh 29.79 in1008.8 mb 0.00 in0.0 mm 0.00 in0.0 mm 0.01 in0.3 mm
06:30 AM 42.4°F5.8°C 41.6°F5.3°C 97% Calm Calm 1.0 mph1.6 kmh 29.78 in1008.5 mb 0.00 in0.0 mm 0.00 in0.0 mm 0.01 in0.3 mm
06:15 AM 42.8°F6.0°C 42.0°F5.6°C 97% Calm Calm -- 29.78 in1008.5 mb 0.00 in0.0 mm 0.00 in0.0 mm 0.01 in0.3 mm
06:00 AM 43.2°F6.2°C 42.4°F5.8°C 97% Calm Calm -- 29.79 in1008.8 mb 0.00 in0.0 mm 0.00 in0.0 mm 0.01 in0.3 mm
05:30 AM 43.1°F6.2°C 42.3°F5.7°C 97% Calm Calm -- 29.78 in1008.5 mb 0.00 in0.0 mm 0.00 in0.0 mm 0.01 in0.3 mm
05:15 AM 43.1°F6.2°C 42.0°F5.6°C 96% Calm Calm -- 29.78 in1008.5 mb 0.00 in0.0 mm 0.00 in0.0 mm 0.01 in0.3 mm
05:00 AM 43.2°F6.2°C 42.4°F5.8°C 97% Calm Calm -- 29.77 in1008.1 mb 0.00 in0.0 mm 0.00 in0.0 mm 0.01 in0.3 mm
04:45 AM 43.5°F6.4°C 42.7°F5.9°C 97% Calm Calm -- 29.78 in1008.5 mb 0.00 in0.0 mm 0.00 in0.0 mm 0.01 in0.3 mm
04:30 AM 43.6°F6.4°C 42.8°F6.0°C 97% Calm Calm -- 29.78 in1008.5 mb 0.00 in0.0 mm 0.00 in0.0 mm 0.01 in0.3 mm
04:15 AM 43.7°F6.5°C 42.9°F6.1°C 97% Calm Calm -- 29.78 in1008.5 mb 0.00 in0.0 mm 0.00 in0.0 mm 0.01 in0.3 mm
04:00 AM 43.8°F6.6°C 43.0°F6.1°C 97% Calm Calm 2.0 mph3.2 kmh 29.78 in1008.5 mb 0.00 in0.0 mm 0.00 in0.0 mm 0.01 in0.3 mm
03:45 AM 43.7°F6.5°C 42.9°F6.1°C 97% Calm Calm -- 29.77 in1008.1 mb 0.00 in0.0 mm 0.00 in0.0 mm 0.01 in0.3 mm
03:30 AM 43.6°F6.4°C 42.8°F6.0°C 97% Calm Calm -- 29.77 in1008.1 mb 0.00 in0.0 mm 0.00 in0.0 mm 0.01 in0.3 mm
03:15 AM 43.6°F6.4°C 42.8°F6.0°C 97% Calm Calm -- 29.78 in1008.5 mb 0.00 in0.0 mm 0.00 in0.0 mm 0.01 in0.3 mm
03:00 AM 43.6°F6.4°C 42.5°F5.8°C 96% Calm Calm -- 29.77 in1008.1 mb 0.00 in0.0 mm 0.00 in0.0 mm 0.01 in0.3 mm
02:45 AM 43.6°F6.4°C 42.5°F5.8°C 96% Calm Calm -- 29.77 in1008.1 mb 0.00 in0.0 mm 0.00 in0.0 mm 0.01 in0.3 mm
02:30 AM 43.6°F6.4°C 42.5°F5.8°C 96% Calm Calm 2.0 mph3.2 kmh 29.77 in1008.1 mb 0.00 in0.0 mm 0.00 in0.0 mm 0.01 in0.3 mm
02:15 AM 43.6°F6.4°C 42.5°F5.8°C 96% 1.0 mph SE1.6 kmh SE 3.0 mph4.8 kmh 29.77 in1008.1 mb 0.01 in0.3 mm 0.00 in0.0 mm 0.01 in0.3 mm
02:00 AM 43.5°F6.4°C 42.4°F5.8°C 96% 1.0 mph ESE1.6 kmh ESE 2.0 mph3.2 kmh 29.78 in1008.5 mb 0.01 in0.3 mm 0.00 in0.0 mm 0.01 in0.3 mm
01:45 AM 43.4°F6.3°C 42.3°F5.7°C 96% 2.0 mph ESE3.2 kmh ESE 8.0 mph12.9 kmh 29.78 in1008.5 mb 0.01 in0.3 mm 0.00 in0.0 mm 0.01 in0.3 mm
01:30 AM 43.5°F6.4°C 42.4°F5.8°C 96% 2.0 mph E3.2 kmh E 7.0 mph11.3 kmh 29.78 in1008.5 mb 0.01 in0.3 mm 0.04 in1.0 mm 0.01 in0.3 mm
01:15 AM 43.7°F6.5°C 42.4°F5.8°C 95% 2.0 mph E3.2 kmh E 7.0 mph11.3 kmh 29.78 in1008.5 mb 0.00 in0.0 mm 0.00 in0.0 mm 0.00 in0.0 mm
01:00 AM 43.9°F6.6°C 42.6°F5.9°C 95% 2.0 mph E3.2 kmh E 5.0 mph8.0 kmh 29.79 in1008.8 mb 0.00 in0.0 mm 0.00 in0.0 mm 0.00 in0.0 mm
12:45 AM 43.9°F6.6°C 42.3°F5.7°C 94% 1.0 mph E1.6 kmh E 4.0 mph6.4 kmh 29.78 in1008.5 mb 0.00 in0.0 mm 0.00 in0.0 mm 0.00 in0.0 mm
12:30 AM 43.8°F6.6°C 42.2°F5.7°C 94% Calm Calm -- 29.78 in1008.5 mb 0.00 in0.0 mm 0.00 in0.0 mm 0.00 in0.0 mm
12:15 AM 43.7°F6.5°C 42.1°F5.6°C 94% Calm Calm -- 29.77 in1008.1 mb 0.00 in0.0 mm 0.00 in0.0 mm 0.00 in0.0 mm
12:00 AM 43.8°F6.6°C 42.2°F5.7°C 94% Calm Calm -- 29.77 in1008.1 mb 0.00 in0.0 mm 0.00 in0.0 mm 0.00 in0.0 mm